createdAt,value
2018-01-27T00:01:26.906Z,169.7
2018-01-27T00:11:31.582Z,168.9
2018-01-27T00:21:25.838Z,163.0
2018-01-27T00:31:27.618Z,161.4
2018-01-27T00:41:25.809Z,153.9
2018-01-27T00:51:32.037Z,156.4
2018-01-27T01:01:31.938Z,154.2
2018-01-27T01:11:28.407Z,154.0
2018-01-27T01:21:31.276Z,149.0
2018-01-27T01:31:30.870Z,149.3
2018-01-27T01:41:31.814Z,139.1
2018-01-27T01:51:31.803Z,139.4
2018-01-27T02:01:26.269Z,135.6
2018-01-27T02:11:25.876Z,137.6
2018-01-27T02:21:26.830Z,137.2
2018-01-27T02:31:26.233Z,135.5
2018-01-27T02:41:32.167Z,138.0
2018-01-27T02:51:32.378Z,140.1
2018-01-27T03:01:30.971Z,133.5
2018-01-27T03:11:34.699Z,133.9
2018-01-27T03:21:31.565Z,129.9
2018-01-27T03:31:31.715Z,123.0
2018-01-27T03:41:31.840Z,124.5
2018-01-27T03:51:32.460Z,128.0
2018-01-27T04:01:27.041Z,132.0
2018-01-27T04:11:28.752Z,119.9
2018-01-27T04:21:32.455Z,116.2
2018-01-27T04:31:27.308Z,114.0
2018-01-27T04:41:30.936Z,115.2
2018-01-27T04:51:28.629Z,114.4
2018-01-27T05:01:25.911Z,127.1
2018-01-27T05:11:26.673Z,121.5
2018-01-27T05:21:25.960Z,123.3
2018-01-27T05:31:27.285Z,116.9
2018-01-27T05:41:32.655Z,115.5
2018-01-27T05:51:26.580Z,115.0
2018-01-27T06:01:31.504Z,109.5
2018-01-27T06:11:25.714Z,105.1
2018-01-27T06:21:26.264Z,97.3
2018-01-27T06:31:27.006Z,93.8
2018-01-27T06:41:26.487Z,86.9
2018-01-27T06:51:27.681Z,90.4
2018-01-27T07:01:26.695Z,93.3
2018-01-27T07:11:31.388Z,94.8
2018-01-27T07:21:27.183Z,90.8
2018-01-27T07:31:27.127Z,90.7
2018-01-27T07:41:32.336Z,94.3
2018-01-27T07:51:27.974Z,91.6
2018-01-27T08:01:28.146Z,89.7
2018-01-27T08:11:26.645Z,89.8
2018-01-27T08:21:27.370Z,91.5
2018-01-27T08:31:28.555Z,85.3
2018-01-27T08:41:31.760Z,87.1
2018-01-27T08:51:26.798Z,87.3
2018-01-27T09:01:26.582Z,91.9
2018-01-27T09:11:28.765Z,83.2
2018-01-27T09:21:27.587Z,67.1
2018-01-27T09:31:32.039Z,63.9
2018-01-27T09:41:27.695Z,61.0
2018-01-27T09:51:28.908Z,64.4
2018-01-27T10:01:26.025Z,64.4
2018-01-27T10:11:30.173Z,72.3
2018-01-27T10:21:31.050Z,70.3
2018-01-27T10:31:27.370Z,68.5
2018-01-27T10:41:25.753Z,65.8
2018-01-27T10:51:26.217Z,65.6
2018-01-27T11:01:26.388Z,66.4
2018-01-27T11:11:31.950Z,65.1
2018-01-27T11:21:32.054Z,66.6
2018-01-27T11:31:35.020Z,67.8
2018-01-27T11:41:25.946Z,72.0
2018-01-27T11:51:38.125Z,68.8
2018-01-27T12:01:27.682Z,67.1
2018-01-27T12:11:26.311Z,66.3
2018-01-27T12:21:32.447Z,60.7
2018-01-27T12:31:28.500Z,59.6
2018-01-27T12:41:28.382Z,62.9
2018-01-27T12:51:31.431Z,65.7
2018-01-27T13:01:26.357Z,66.2
2018-01-27T13:11:28.547Z,67.4
2018-01-27T13:21:31.684Z,70.5
2018-01-27T13:31:33.381Z,67.3
2018-01-27T13:41:26.956Z,63.6
2018-01-27T13:51:31.927Z,63.9
2018-01-27T14:01:31.429Z,62.9
2018-01-27T14:11:32.101Z,63.4
2018-01-27T14:21:31.403Z,61.2
2018-01-27T14:31:31.375Z,64.4
2018-01-27T14:41:31.335Z,64.7
2018-01-27T14:51:31.306Z,70.1
2018-01-27T15:01:31.261Z,72.0
2018-01-27T15:11:31.912Z,81.7
2018-01-27T15:21:32.450Z,83.9
2018-01-27T15:31:32.062Z,83.0
2018-01-27T15:41:31.625Z,73.1
2018-01-27T15:51:33.553Z,74.4
2018-01-27T16:01:26.880Z,73.3
2018-01-27T16:11:26.111Z,80.2
2018-01-27T16:21:32.540Z,82.3
2018-01-27T16:31:27.383Z,88.7
2018-01-27T16:41:32.477Z,95.7
2018-01-27T16:51:25.680Z,100.7
2018-01-27T17:01:32.380Z,101.3
2018-01-27T17:11:26.283Z,100.9
2018-01-27T17:21:36.193Z,103.5
2018-01-27T17:31:33.454Z,100.7
2018-01-27T17:41:33.529Z,98.5
2018-01-27T17:51:32.017Z,102.9
2018-01-27T18:01:32.500Z,112.4
2018-01-27T18:11:31.682Z,109.9
2018-01-27T18:21:32.603Z,114.2
2018-01-27T18:31:31.351Z,105.3
2018-01-27T18:41:34.243Z,115.0
2018-01-27T18:51:31.577Z,112.2
2018-01-27T19:01:31.269Z,109.0
2018-01-27T19:11:31.906Z,113.3
2018-01-27T19:21:31.873Z,108.5
2018-01-27T19:31:32.393Z,107.6
2018-01-27T19:41:46.711Z,116.5
2018-01-27T19:51:26.368Z,116.6
2018-01-27T20:01:33.322Z,108.4
2018-01-27T20:11:37.500Z,105.1
2018-01-27T20:31:43.303Z,107.6
2018-01-27T20:41:25.773Z,103.3
2018-01-27T20:51:46.895Z,109.7
2018-01-27T21:01:38.508Z,114.8
2018-01-27T21:11:32.001Z,116.5
2018-01-27T21:21:52.082Z,114.9
2018-01-27T21:31:33.970Z,117.3
2018-01-27T21:41:41.902Z,116.2
2018-01-27T21:51:32.406Z,121.5
2018-01-27T22:01:34.088Z,118.1
2018-01-27T22:11:33.899Z,114.4
2018-01-27T22:21:33.255Z,110.9
2018-01-27T22:31:28.903Z,111.6
2018-01-27T22:41:26.686Z,113.4
2018-01-27T22:51:31.810Z,113.6
2018-01-27T23:01:27.917Z,110.8
2018-01-27T23:11:27.538Z,115.8
2018-01-27T23:21:26.505Z,113.6
2018-01-27T23:31:27.975Z,114.3
2018-01-27T23:41:33.144Z,108.8
2018-01-27T23:51:32.037Z,107.6
